24 Datensätze sind 1 Tag. Aufzeichnung ab 07. Oktober 2014.
Werte (Summe von Anzahl und Position darf nicht größer sein als mögliche Datensätze).
Anzahl:
Position: Summe:
\ 25431 Datensätze möglich.
  20 letzte Aufzeichnungen
gezeigte Daten 20 ab Position 1    Summe der Auswahl = 21
17.11.2017 / 09:26 Uhr bis 18.11.2017 / 04:26 Uhr
Regenmenge 0 Liter

Datum/Zeit Temp. Taupunkt Luftfeuchte Wind speed Wind böhe Wind Temp. Regen Summe Luftdruck
18.11.2017 | 05:26 Uhr 0.8C -1.0C 88% 0.0 kmh 0.0kmh -0.8C 272.9mm 1002.5361mBar/hPa
18.11.2017 | 04:26 Uhr 0.7C -1.1C 88% 0.0 kmh 0.0kmh -0.4C 272.9mm 1003.0361mBar/hPa
18.11.2017 | 03:26 Uhr -0.1C -2.0C 87% 0.0 kmh 0.0kmh -1.2C 272.9mm 1003.6611mBar/hPa
18.11.2017 | 02:26 Uhr -0.9C -2.9C 86% 0.0 kmh 0.0kmh -2.2C 272.9mm 1004.5986mBar/hPa
18.11.2017 | 01:26 Uhr -1.5C -3.8C 84% 0.0 kmh 0.0kmh -4.0C 272.9mm 1004.9736mBar/hPa
18.11.2017 | 00:26 Uhr -1.1C -3.5C 84% 0.0 kmh 0.0kmh -3.4C 272.9mm 1005.2236mBar/hPa
17.11.2017 | 23:26 Uhr -1.0C -3.4C 84% 0.0 kmh 0.0kmh -3.3C 272.9mm 1005.9736mBar/hPa
17.11.2017 | 22:26 Uhr -0.6C -3.0C 84% 0.0 kmh 0.0kmh -3.3C 272.9mm 1006.5361mBar/hPa
17.11.2017 | 21:26 Uhr -0.5C -3.0C 83% 0.0 kmh 0.0kmh -3.2C 272.9mm 1006.8486mBar/hPa
17.11.2017 | 20:26 Uhr 0.1C -2.4C 83% 0.0 kmh 0.0kmh -2.4C 272.9mm 1007.0361mBar/hPa
17.11.2017 | 19:26 Uhr 0.5C -2.1C 83% 0.0 kmh 0.0kmh -2.7C 272.9mm 1006.7236mBar/hPa
17.11.2017 | 18:26 Uhr 1.3C -1.3C 83% 0.0 kmh 0.0kmh -2.0C 272.9mm 1007.0361mBar/hPa
17.11.2017 | 17:26 Uhr 2.0C -0.7C 82% 0.0 kmh 0.0kmh -1.2C 272.9mm 1007.0986mBar/hPa
17.11.2017 | 16:26 Uhr 3.9C 1.1C 82% 0.0 kmh 0.0kmh 0.2C 272.9mm 1007.0361mBar/hPa
17.11.2017 | 15:26 Uhr 5.6C 2.8C 82% 0.0 kmh 0.0kmh 2.3C 272.9mm 1007.0361mBar/hPa
17.11.2017 | 14:26 Uhr 6.7C 4.4C 85% 0.0 kmh 0.0kmh 6.5C 272.9mm 1007.2236mBar/hPa
17.11.2017 | 13:26 Uhr 6.8C 4.5C 85% 0.0 kmh 0.1kmh 6.2C 272.9mm 1006.9736mBar/hPa
17.11.2017 | 12:26 Uhr 6.8C 5.1C 89% 0.0 kmh 0.3kmh 7.5C 272.9mm 1007.0361mBar/hPa
17.11.2017 | 11:26 Uhr 6.3C 4.8C 90% 0.0 kmh 0.0kmh 7.0C 272.9mm 1007.0986mBar/hPa
17.11.2017 | 10:26 Uhr 5.6C 4.1C 90% 0.0 kmh 0.1kmh 5.8C 272.9mm 1006.7236mBar/hPa